Time;durP1;ratioP1;P1;durP2;ratioP2;P2;SDS_P1;SDS_P2;PMS_P1;PMS_P2;Temp;Humidity;BMP_temperature;BMP_pressure;BME280_temperature;BME280_humidity;BME280_pressure;Samples;Min_cycle;Max_cycle;Signal;HPM_P1;HPM_P2
2022/10/18 00:02:02;;;;;;;26.00;7.10;;;;;;;;;;4921955;28;20505;-75
2022/10/18 00:04:47;;;;;;;16.98;6.60;;;;;;;;;;4849063;29;20916;-76
2022/10/18 00:07:25;;;;;;;53.05;8.82;;;;;;;;;;4916707;28;20051;-75
2022/10/18 00:10:12;;;;;;;31.17;8.48;;;;;;;;;;4979422;28;20055;-76
2022/10/18 00:13:04;;;;;;;18.90;8.18;;;;;;;;;;4953838;28;20066;-76
2022/10/18 00:15:48;;;;;;;;;;;;;;;;;;;;;
2022/10/18 00:18:24;;;;;;;34.25;5.20;;;;;;;;;;4971812;28;20570;-76
2022/10/18 00:20:59;;;;;;;7.05;4.03;;;;;;;;;;4981602;28;20055;-75
2022/10/18 00:23:41;;;;;;;9.00;4.15;;;;;;;;;;4972381;28;20059;-77
2022/10/18 00:26:18;;;;;;;9.32;4.60;;;;;;;;;;4967292;28;20950;-75
2022/10/18 00:29:07;;;;;;;16.70;5.10;;;;;;;;;;4973371;28;20124;-76
2022/10/18 00:31:41;;;;;;;7.78;3.78;;;;;;;;;;4969621;28;20385;-75
2022/10/18 00:34:12;;;;;;;;;;;;;;;;;;4972499;28;20055;-75
2022/10/18 00:36:41;;;;;;;12.25;3.63;;;;;;;;;;4965901;28;44018;-75
2022/10/18 00:39:15;;;;;;;17.77;4.35;;;;;;;;;;4973725;28;20035;-75
2022/10/18 00:41:51;;;;;;;28.90;4.13;;;;;;;;;;4975428;28;20059;-76
2022/10/18 00:44:20;;;;;;;22.05;4.18;;;;;;;;;;4988920;28;20051;-75
2022/10/18 00:47:05;;;;;;;28.45;4.03;;;;;;;;;;4976135;28;20103;-75
2022/10/18 00:49:52;;;;;;;27.17;5.15;;;;;;;;;;4906200;29;20059;-76
2022/10/18 00:53:04;;;;;;;;;;;;;;;;;;;;;
2022/10/18 00:55:35;;;;;;;27.30;4.32;;;;;;;;;;4974377;28;20061;-75
2022/10/18 00:58:15;;;;;;;27.08;5.25;;;;;;;;;;4973978;28;20494;-75
2022/10/18 01:00:49;;;;;;;12.07;5.07;;;;;;;;;;4989678;28;20063;-76
2022/10/18 01:03:18;;;;;;;20.45;4.15;;;;;;;;;;4976461;28;20142;-76
2022/10/18 01:08:56;;;;;;;12.65;3.95;;;;;;;;;;4973809;28;20052;-76
2022/10/18 01:12:01;;;;;;;15.00;4.65;;;;;;;;;;4884328;29;20092;-77
2022/10/18 01:14:55;;;;;;;12.13;4.60;;;;;;;;;;4893570;29;20049;-76
2022/10/18 01:18:18;;;;;;;11.10;4.15;;;;;;;;;;4873954;29;20052;-76
2022/10/18 01:21:03;;;;;;;24.50;4.50;;;;;;;;;;4939965;28;20063;-76
2022/10/18 01:24:02;;;;;;;11.25;3.88;;;;;;;;;;4967201;28;20833;-75
2022/10/18 01:26:50;;;;;;;9.73;4.47;;;;;;;;;;4891400;29;20125;-76
2022/10/18 01:33:14;;;;;;;33.42;5.00;;;;;;;;;;4893645;29;20064;-78
2022/10/18 01:36:25;;;;;;;25.60;5.05;;;;;;;;;;4923167;28;20043;-76
2022/10/18 01:38:57;;;;;;;32.33;5.15;;;;;;;;;;4875264;29;20180;-76
2022/10/18 01:41:41;;;;;;;71.10;7.15;;;;;;;;;;4895685;29;20893;-75
2022/10/18 01:44:17;;;;;;;75.77;7.70;;;;;;;;;;4892736;29;20061;-76
2022/10/18 01:47:13;;;;;;;55.15;6.80;;;;;;;;;;4827737;29;20867;-76
2022/10/18 01:49:59;;;;;;;12.30;5.40;;;;;;;;;;4845224;29;20058;-75
2022/10/18 01:52:28;;;;;;;12.38;5.38;;;;;;;;;;4892144;29;20053;-76
2022/10/18 01:55:26;;;;;;;46.45;6.68;;;;;;;;;;4908963;29;20484;-76
2022/10/18 01:58:21;;;;;;;82.45;8.07;;;;;;;;;;4909511;29;20252;-75
2022/10/18 02:01:05;;;;;;;13.40;5.00;;;;;;;;;;4918030;29;20062;-75
2022/10/18 02:03:47;;;;;;;67.38;7.63;;;;;;;;;;4914352;29;20059;-76
2022/10/18 02:06:54;;;;;;;20.65;6.30;;;;;;;;;;4893262;29;20105;-76
2022/10/18 02:10:17;;;;;;;45.92;6.68;;;;;;;;;;4938663;28;20056;-75
2022/10/18 02:12:45;;;;;;;50.67;6.70;;;;;;;;;;4963609;28;20055;-76
2022/10/18 02:15:49;;;;;;;31.15;5.97;;;;;;;;;;4973864;28;20201;-75
2022/10/18 02:18:23;;;;;;;55.08;6.43;;;;;;;;;;4977132;28;20063;-76
2022/10/18 02:20:55;;;;;;;46.63;7.55;;;;;;;;;;4976808;28;20952;-76
2022/10/18 02:23:28;;;;;;;76.57;9.05;;;;;;;;;;4975313;28;20052;-75
2022/10/18 02:26:16;;;;;;;66.03;8.90;;;;;;;;;;4973769;28;20778;-75
2022/10/18 02:29:05;;;;;;;133.80;12.57;;;;;;;;;;4960260;28;20123;-76
2022/10/18 02:32:12;;;;;;;66.63;9.05;;;;;;;;;;4962777;28;20419;-76
2022/10/18 02:34:49;;;;;;;42.25;7.40;;;;;;;;;;4969005;28;20055;-75
2022/10/18 02:37:39;;;;;;;28.42;7.00;;;;;;;;;;4954565;28;20446;-75
2022/10/18 02:40:14;;;;;;;18.17;7.37;;;;;;;;;;4968226;28;20059;-75
2022/10/18 02:42:47;;;;;;;10.60;7.23;;;;;;;;;;4971990;28;20051;-76
2022/10/18 02:45:33;;;;;;;46.05;7.93;;;;;;;;;;4967285;28;20917;-75
2022/10/18 02:48:02;;;;;;;19.48;7.43;;;;;;;;;;4965926;28;20538;-75
2022/10/18 02:50:36;;;;;;;19.65;6.78;;;;;;;;;;4975104;28;20055;-75
2022/10/18 02:53:07;;;;;;;31.48;7.35;;;;;;;;;;4975017;28;20799;-76
2022/10/18 02:55:38;;;;;;;17.05;6.68;;;;;;;;;;4974554;28;20066;-75
2022/10/18 02:58:19;;;;;;;;;;;;;;;;;;;;;
2022/10/18 03:01:18;;;;;;;31.63;6.65;;;;;;;;;;4963958;28;20063;-75
2022/10/18 03:04:19;;;;;;;28.20;5.70;;;;;;;;;;4919140;28;20144;-76
2022/10/18 03:06:51;;;;;;;8.52;5.53;;;;;;;;;;4971903;28;20175;-75
2022/10/18 03:09:20;;;;;;;35.80;6.38;;;;;;;;;;4968437;28;20087;-76
2022/10/18 03:11:59;;;;;;;36.70;5.63;;;;;;;;;;4959663;28;20862;-76
2022/10/18 03:14:30;;;;;;;31.20;5.72;;;;;;;;;;4964603;28;20055;-75
2022/10/18 03:17:03;;;;;;;;;;;;;;;;;;4966304;28;20051;-75
2022/10/18 03:19:40;;;;;;;29.17;5.32;;;;;;;;;;4971435;28;40810;-78
2022/10/18 03:22:14;;;;;;;39.03;6.70;;;;;;;;;;4965166;28;20047;-76
2022/10/18 03:25:02;;;;;;;22.38;5.45;;;;;;;;;;4929743;28;20886;-76
2022/10/18 03:27:36;;;;;;;41.50;6.05;;;;;;;;;;4972321;28;20523;-75
2022/10/18 03:30:14;;;;;;;24.25;4.88;;;;;;;;;;4971242;28;20059;-75
2022/10/18 03:32:54;;;;;;;36.20;5.60;;;;;;;;;;4972205;28;20051;-76
2022/10/18 03:35:25;;;;;;;36.15;5.38;;;;;;;;;;4984026;28;20066;-75
2022/10/18 03:38:09;;;;;;;16.90;4.65;;;;;;;;;;4972368;28;20061;-75
2022/10/18 03:40:44;;;;;;;15.18;5.05;;;;;;;;;;4971391;28;20062;-75
2022/10/18 03:43:23;;;;;;;16.73;5.07;;;;;;;;;;4972758;28;21034;-75
2022/10/18 03:46:50;;;;;;;25.40;4.93;;;;;;;;;;4970351;28;21711;-75
2022/10/18 03:49:19;;;;;;;17.58;4.65;;;;;;;;;;4931249;28;20062;-76
2022/10/18 03:51:58;;;;;;;18.08;5.07;;;;;;;;;;4932011;28;20059;-76
2022/10/18 03:57:27;;;;;;;17.70;5.60;;;;;;;;;;4926463;28;20963;-76
2022/10/18 04:00:25;;;;;;;15.05;4.88;;;;;;;;;;4892648;29;20065;-78
2022/10/18 04:03:12;;;;;;;16.50;4.80;;;;;;;;;;4893492;29;20048;-75
2022/10/18 04:05:59;;;;;;;21.13;4.60;;;;;;;;;;4893160;29;20149;-75
2022/10/18 04:12:23;;;;;;;21.85;5.47;;;;;;;;;;4837685;29;20922;-75
2022/10/18 04:14:56;;;;;;;7.78;4.95;;;;;;;;;;4854452;29;20073;-76
2022/10/18 04:17:37;;;;;;;7.88;5.40;;;;;;;;;;4826943;29;20055;-75
2022/10/18 04:20:40;;;;;;;7.00;4.97;;;;;;;;;;4864125;29;20116;-76
2022/10/18 04:23:28;;;;;;;14.40;4.45;;;;;;;;;;4872278;29;20166;-75
2022/10/18 04:26:20;;;;;;;33.08;5.82;;;;;;;;;;4915169;28;20151;-75
2022/10/18 04:29:23;;;;;;;27.35;5.70;;;;;;;;;;4874053;29;20183;-75
2022/10/18 04:31:59;;;;;;;20.52;4.68;;;;;;;;;;4876380;29;20045;-75
2022/10/18 04:34:27;;;;;;;22.15;5.28;;;;;;;;;;4876725;29;20159;-75
2022/10/18 04:36:59;;;;;;;37.97;5.95;;;;;;;;;;4929554;28;20060;-75
2022/10/18 04:39:32;;;;;;;12.98;5.30;;;;;;;;;;4931457;29;20095;-76
2022/10/18 04:42:17;;;;;;;19.77;5.60;;;;;;;;;;4921202;28;20052;-76
2022/10/18 04:45:00;;;;;;;37.58;5.63;;;;;;;;;;4926986;28;20055;-76
2022/10/18 04:47:42;;;;;;;40.53;5.07;;;;;;;;;;4988014;28;20047;-78
2022/10/18 04:50:12;;;;;;;22.05;5.32;;;;;;;;;;4971297;28;20942;-76
2022/10/18 04:52:52;;;;;;;;;;;;;;;;;;;;;
2022/10/18 04:55:25;;;;;;;33.85;5.55;;;;;;;;;;4970273;28;20055;-77
2022/10/18 04:57:53;;;;;;;18.83;5.32;;;;;;;;;;4962573;28;20109;-76
2022/10/18 05:00:31;;;;;;;14.75;4.80;;;;;;;;;;4970113;28;20067;-75
2022/10/18 05:03:21;;;;;;;16.70;4.60;;;;;;;;;;4969809;28;20061;-75
2022/10/18 05:05:53;;;;;;;13.45;5.20;;;;;;;;;;4973382;28;20058;-76
2022/10/18 05:08:37;;;;;;;15.32;4.68;;;;;;;;;;4971257;28;20047;-76
2022/10/18 05:11:13;;;;;;;7.93;4.40;;;;;;;;;;4972183;28;20040;-76
2022/10/18 05:14:15;;;;;;;13.95;4.18;;;;;;;;;;4972143;28;20566;-76
2022/10/18 05:20:09;;;;;;;15.10;4.13;;;;;;;;;;4967069;28;20055;-77
2022/10/18 05:22:48;;;;;;;8.57;4.05;;;;;;;;;;4968426;28;20146;-76
2022/10/18 05:25:33;;;;;;;9.05;4.00;;;;;;;;;;4977540;28;20055;-76
2022/10/18 05:28:11;;;;;;;18.15;4.35;;;;;;;;;;4973565;28;20134;-76
2022/10/18 05:31:20;;;;;;;16.70;4.78;;;;;;;;;;4974520;28;20448;-78
2022/10/18 05:34:00;;;;;;;19.83;5.53;;;;;;;;;;4965272;28;20927;-75
2022/10/18 05:36:54;;;;;;;15.07;5.05;;;;;;;;;;4971868;28;20142;-75
2022/10/18 05:43:24;;;;;;;16.80;5.18;;;;;;;;;;4895455;29;20045;-76
2022/10/18 05:46:00;;;;;;;20.23;4.63;;;;;;;;;;4890201;29;20055;-79
2022/10/18 05:48:54;;;;;;;19.83;4.57;;;;;;;;;;4880657;28;20060;-78
2022/10/18 05:54:40;;;;;;;30.10;4.53;;;;;;;;;;4890485;29;20052;-75
2022/10/18 05:57:21;;;;;;;49.30;6.32;;;;;;;;;;4871708;29;20419;-78
2022/10/18 05:59:49;;;;;;;31.23;5.72;;;;;;;;;;4877180;29;20063;-75
2022/10/18 06:02:45;;;;;;;24.00;5.05;;;;;;;;;;4873837;29;20064;-76
2022/10/18 06:05:38;;;;;;;34.53;5.32;;;;;;;;;;4879724;29;20061;-78
2022/10/18 06:08:19;;;;;;;61.97;6.57;;;;;;;;;;4887566;29;20060;-78
2022/10/18 06:11:10;;;;;;;82.70;8.05;;;;;;;;;;4892233;29;20924;-76
2022/10/18 06:13:41;;;;;;;47.92;7.10;;;;;;;;;;4892146;29;20064;-78
2022/10/18 06:16:12;;;;;;;43.85;6.25;;;;;;;;;;4873374;29;21042;-76
2022/10/18 06:18:39;;;;;;;38.95;6.25;;;;;;;;;;4900501;29;20051;-78
2022/10/18 06:21:06;;;;;;;45.80;6.10;;;;;;;;;;4930214;28;20877;-78
2022/10/18 06:23:36;;;;;;;36.03;6.20;;;;;;;;;;4928334;28;20090;-78
2022/10/18 06:26:16;;;;;;;;;;;;;;;;;;;;;
2022/10/18 06:28:48;;;;;;;35.28;6.18;;;;;;;;;;4968681;28;20059;-78
2022/10/18 06:31:20;;;;;;;21.40;5.70;;;;;;;;;;4972399;28;20059;-76
2022/10/18 06:34:01;;;;;;;24.23;5.63;;;;;;;;;;4966164;28;20047;-78
2022/10/18 06:36:47;;;;;;;33.30;5.35;;;;;;;;;;4967686;28;20061;-78
2022/10/18 06:39:15;;;;;;;33.33;4.60;;;;;;;;;;4967440;28;20544;-78
2022/10/18 06:41:42;;;;;;;18.33;4.18;;;;;;;;;;4967821;28;20051;-78
2022/10/18 06:44:13;;;;;;;34.90;4.68;;;;;;;;;;4971849;28;20860;-78
2022/10/18 06:46:52;;;;;;;31.98;4.88;;;;;;;;;;4966667;28;20504;-76
2022/10/18 06:49:44;;;;;;;43.60;5.35;;;;;;;;;;4972113;28;20137;-76
2022/10/18 06:52:25;;;;;;;31.25;5.03;;;;;;;;;;4968517;28;20805;-78
2022/10/18 06:54:57;;;;;;;28.23;4.13;;;;;;;;;;4968805;28;20047;-78
2022/10/18 06:57:28;;;;;;;14.85;4.18;;;;;;;;;;4968652;28;20054;-76
2022/10/18 06:59:55;;;;;;;9.35;4.25;;;;;;;;;;4969996;28;20059;-78
2022/10/18 07:02:24;;;;;;;33.38;3.90;;;;;;;;;;4969700;28;20110;-76
2022/10/18 07:05:07;;;;;;;29.30;4.32;;;;;;;;;;4968278;28;20162;-77
2022/10/18 07:07:34;;;;;;;12.48;4.10;;;;;;;;;;4969358;28;20471;-78
2022/10/18 07:10:12;;;;;;;21.08;3.72;;;;;;;;;;4971204;28;20507;-78
2022/10/18 07:12:40;;;;;;;32.22;4.55;;;;;;;;;;4970465;28;20628;-79
2022/10/18 07:15:13;;;;;;;22.00;3.58;;;;;;;;;;4972639;28;20082;-78
2022/10/18 07:18:34;;;;;;;7.47;3.63;;;;;;;;;;4969577;28;20081;-78
2022/10/18 07:21:15;;;;;;;6.82;3.63;;;;;;;;;;4971138;28;20150;-78
2022/10/18 07:23:46;;;;;;;9.43;3.88;;;;;;;;;;4969305;28;20051;-78
2022/10/18 07:26:34;;;;;;;11.93;4.03;;;;;;;;;;4950609;28;20537;-79
2022/10/18 07:29:10;;;;;;;6.55;3.58;;;;;;;;;;4967535;28;20051;-78
2022/10/18 07:31:40;;;;;;;7.72;3.58;;;;;;;;;;4971264;28;20491;-78
2022/10/18 07:34:14;;;;;;;6.50;3.28;;;;;;;;;;4971713;28;20055;-78
2022/10/18 07:36:46;;;;;;;13.18;3.95;;;;;;;;;;4972337;28;20873;-79
2022/10/18 07:39:45;;;;;;;8.20;3.75;;;;;;;;;;4952725;28;20157;-76
2022/10/18 07:42:13;;;;;;;7.20;4.05;;;;;;;;;;4966877;28;20941;-78
2022/10/18 07:44:40;;;;;;;8.30;4.30;;;;;;;;;;4971426;28;20507;-77
2022/10/18 07:47:21;;;;;;;9.70;3.70;;;;;;;;;;4970939;28;20054;-77
2022/10/18 07:49:52;;;;;;;9.13;5.05;;;;;;;;;;4971753;28;20051;-78
2022/10/18 07:52:28;;;;;;;14.50;4.90;;;;;;;;;;4972349;28;20051;-78
2022/10/18 07:54:55;;;;;;;12.43;4.40;;;;;;;;;;4971514;28;20047;-78
2022/10/18 07:57:22;;;;;;;7.68;4.57;;;;;;;;;;4971762;28;20968;-78
2022/10/18 07:59:59;;;;;;;11.77;4.75;;;;;;;;;;4964071;28;20064;-78
2022/10/18 08:02:31;;;;;;;8.68;4.97;;;;;;;;;;4981704;28;20103;-77
2022/10/18 08:05:17;;;;;;;8.15;4.45;;;;;;;;;;4964459;28;20059;-78
2022/10/18 08:07:47;;;;;;;9.18;4.70;;;;;;;;;;4960605;28;20055;-78
2022/10/18 08:10:14;;;;;;;10.32;4.90;;;;;;;;;;4970727;28;20077;-78
2022/10/18 08:15:58;;;;;;;8.90;4.88;;;;;;;;;;4971379;28;20036;-77
2022/10/18 08:18:37;;;;;;;9.27;4.93;;;;;;;;;;4970005;28;20059;-77
2022/10/18 08:21:07;;;;;;;11.63;4.93;;;;;;;;;;4971250;28;20055;-77
2022/10/18 08:26:55;;;;;;;15.50;4.70;;;;;;;;;;4963836;28;20051;-76
2022/10/18 08:29:26;;;;;;;8.40;4.78;;;;;;;;;;4960887;28;20062;-76
2022/10/18 08:32:01;;;;;;;9.63;5.03;;;;;;;;;;4976144;28;20126;-77
2022/10/18 08:34:35;;;;;;;18.25;4.85;;;;;;;;;;4965727;28;20446;-78
2022/10/18 08:37:11;;;;;;;6.63;4.55;;;;;;;;;;4968085;28;20061;-76
2022/10/18 08:39:40;;;;;;;14.30;5.13;;;;;;;;;;4968764;28;20051;-78
2022/10/18 08:42:56;;;;;;;18.80;6.00;;;;;;;;;;4955597;28;20058;-77
2022/10/18 08:45:23;;;;;;;10.30;4.65;;;;;;;;;;4932912;28;20056;-77
2022/10/18 08:48:16;;;;;;;9.27;5.15;;;;;;;;;;4941407;28;20089;-79
2022/10/18 08:50:44;;;;;;;9.63;4.53;;;;;;;;;;4947554;28;20063;-78
2022/10/18 08:53:35;;;;;;;13.73;5.38;;;;;;;;;;4944277;28;20058;-78
2022/10/18 08:56:29;;;;;;;8.27;4.45;;;;;;;;;;4927975;28;20059;-79
2022/10/18 08:58:57;;;;;;;8.80;4.60;;;;;;;;;;4903119;28;20125;-77
2022/10/18 09:01:43;;;;;;;8.80;4.43;;;;;;;;;;4949246;28;20067;-80
2022/10/18 09:04:29;;;;;;;14.98;4.70;;;;;;;;;;4951244;28;20048;-78
2022/10/18 09:07:05;;;;;;;8.25;4.35;;;;;;;;;;4948706;28;20055;-78
2022/10/18 09:09:43;;;;;;;10.82;4.40;;;;;;;;;;4944692;28;20056;-78
2022/10/18 09:12:36;;;;;;;7.40;3.90;;;;;;;;;;4950145;28;20048;-79
2022/10/18 09:15:23;;;;;;;9.00;3.22;;;;;;;;;;4936377;28;20048;-78
2022/10/18 09:17:58;;;;;;;10.68;3.80;;;;;;;;;;4972321;28;20051;-78
2022/10/18 09:20:29;;;;;;;9.07;3.40;;;;;;;;;;4975743;28;20051;-78
2022/10/18 09:23:05;;;;;;;9.40;3.55;;;;;;;;;;4972076;28;20111;-77
2022/10/18 09:25:40;;;;;;;7.63;2.97;;;;;;;;;;4968742;28;20068;-78
2022/10/18 09:28:07;;;;;;;11.50;3.67;;;;;;;;;;4976099;28;20065;-78
2022/10/18 09:31:03;;;;;;;7.68;2.92;;;;;;;;;;4971870;28;20614;-78
2022/10/18 09:33:39;;;;;;;7.72;2.95;;;;;;;;;;4970157;28;20051;-77
2022/10/18 09:36:40;;;;;;;8.05;2.70;;;;;;;;;;4977628;28;20750;-79
2022/10/18 09:39:14;;;;;;;8.45;2.53;;;;;;;;;;4974697;28;20162;-78
2022/10/18 09:41:47;;;;;;;10.55;2.88;;;;;;;;;;4975475;28;20055;-78
2022/10/18 09:44:37;;;;;;;8.50;2.30;;;;;;;;;;4982729;28;20059;-79
2022/10/18 09:47:23;;;;;;;12.88;2.20;;;;;;;;;;4972487;28;20051;-78
2022/10/18 09:50:00;;;;;;;4.85;1.60;;;;;;;;;;4976026;28;20051;-77
2022/10/18 09:52:40;;;;;;;7.53;1.88;;;;;;;;;;4975239;28;20051;-78
2022/10/18 09:55:27;;;;;;;8.10;1.67;;;;;;;;;;4973158;28;20441;-78
2022/10/18 09:58:00;;;;;;;12.43;1.60;;;;;;;;;;4973576;28;20133;-77
2022/10/18 10:00:36;;;;;;;;;;;;;;;;;;4972786;28;20082;-78
2022/10/18 10:03:19;;;;;;;8.57;1.80;;;;;;;;;;4971943;28;44763;-78
2022/10/18 10:06:11;;;;;;;9.82;1.63;;;;;;;;;;4973013;28;20508;-77
2022/10/18 10:09:01;;;;;;;13.52;2.10;;;;;;;;;;4975370;28;20058;-79
2022/10/18 10:11:47;;;;;;;8.25;1.60;;;;;;;;;;4973449;28;20051;-78
2022/10/18 10:14:26;;;;;;;10.50;1.77;;;;;;;;;;4977919;28;20051;-77
2022/10/18 10:16:58;;;;;;;16.33;2.03;;;;;;;;;;4973186;28;20442;-78
2022/10/18 10:19:47;;;;;;;7.45;1.92;;;;;;;;;;4977966;28;20823;-77
2022/10/18 10:22:34;;;;;;;5.68;1.35;;;;;;;;;;4953739;28;20063;-79
2022/10/18 10:28:12;;;;;;;5.47;1.17;;;;;;;;;;4968662;28;20121;-78
2022/10/18 10:30:51;;;;;;;6.82;1.50;;;;;;;;;;4969751;28;20854;-78
2022/10/18 10:37:21;;;;;;;7.30;1.20;;;;;;;;;;4964669;28;20039;-80
2022/10/18 10:40:09;;;;;;;4.55;1.13;;;;;;;;;;4960366;28;20051;-75
2022/10/18 10:42:55;;;;;;;4.53;1.10;;;;;;;;;;4968625;28;20739;-74
2022/10/18 10:46:06;;;;;;;7.00;1.27;;;;;;;;;;4965508;28;20051;-78
2022/10/18 10:48:59;;;;;;;7.55;1.15;;;;;;;;;;4967435;28;20040;-78
2022/10/18 10:52:05;;;;;;;5.50;1.23;;;;;;;;;;4971967;28;20043;-79
2022/10/18 10:55:15;;;;;;;5.75;1.38;;;;;;;;;;4967002;28;20061;-79
2022/10/18 10:58:01;;;;;;;6.63;1.45;;;;;;;;;;4937903;28;20138;-79
2022/10/18 11:00:39;;;;;;;8.05;1.52;;;;;;;;;;4951386;28;20060;-78
2022/10/18 11:03:19;;;;;;;3.15;1.00;;;;;;;;;;4951160;28;20051;-75
2022/10/18 11:06:28;;;;;;;;;;;;;;;;;;;;;
2022/10/18 11:09:37;;;;;;;9.05;1.65;;;;;;;;;;4946931;28;20131;-78
2022/10/18 11:12:22;;;;;;;13.07;1.50;;;;;;;;;;4930296;28;20145;-77
2022/10/18 11:14:52;;;;;;;2.67;1.00;;;;;;;;;;4950875;28;20059;-78
2022/10/18 11:17:39;;;;;;;4.20;1.02;;;;;;;;;;4951326;28;20051;-77
2022/10/18 11:20:18;;;;;;;2.20;0.70;;;;;;;;;;4952231;28;20062;-77
2022/10/18 11:23:05;;;;;;;5.72;1.10;;;;;;;;;;4946677;28;20935;-77
2022/10/18 11:25:41;;;;;;;4.75;1.13;;;;;;;;;;4952645;28;20060;-76
2022/10/18 11:28:35;;;;;;;5.97;1.35;;;;;;;;;;4937297;28;20159;-77
2022/10/18 11:31:17;;;;;;;5.65;1.20;;;;;;;;;;4950467;28;20047;-77
2022/10/18 11:33:54;;;;;;;9.35;1.60;;;;;;;;;;4935310;28;20982;-78
2022/10/18 11:36:54;;;;;;;9.07;1.08;;;;;;;;;;4969948;28;20055;-78
2022/10/18 11:39:41;;;;;;;6.03;1.27;;;;;;;;;;4967440;28;20094;-78
2022/10/18 11:42:43;;;;;;;9.10;1.67;;;;;;;;;;4968750;28;20056;-79
2022/10/18 11:45:28;;;;;;;9.90;1.48;;;;;;;;;;4966476;28;20874;-77
2022/10/18 11:48:15;;;;;;;7.03;1.50;;;;;;;;;;4967531;28;20056;-78
2022/10/18 11:50:55;;;;;;;4.28;1.13;;;;;;;;;;4963958;28;20086;-77
2022/10/18 11:53:46;;;;;;;7.22;1.35;;;;;;;;;;4966428;28;20055;-79
2022/10/18 11:56:53;;;;;;;2.72;0.85;;;;;;;;;;4909283;29;20084;-78
2022/10/18 11:59:37;;;;;;;2.78;0.80;;;;;;;;;;4909157;29;20064;-74
2022/10/18 12:02:24;;;;;;;4.88;1.13;;;;;;;;;;4909914;29;20065;-77
2022/10/18 12:04:56;;;;;;;6.47;1.38;;;;;;;;;;4913438;29;20060;-76
2022/10/18 12:07:57;;;;;;;;;;;;;;;;;;;;;
2022/10/18 12:11:00;;;;;;;9.23;1.45;;;;;;;;;;4854117;29;20081;-77
2022/10/18 12:13:51;;;;;;;9.35;1.67;;;;;;;;;;4849607;29;20046;-77
2022/10/18 12:16:28;;;;;;;6.32;1.35;;;;;;;;;;4853467;29;20062;-74
2022/10/18 12:19:23;;;;;;;6.38;1.30;;;;;;;;;;4851803;29;20526;-78
2022/10/18 12:21:57;;;;;;;2.30;1.02;;;;;;;;;;4855510;29;20878;-77
2022/10/18 12:24:27;;;;;;;5.45;1.00;;;;;;;;;;4854519;29;20893;-74
2022/10/18 12:27:04;;;;;;;2.17;0.70;;;;;;;;;;4853715;29;20090;-78
2022/10/18 12:29:31;;;;;;;5.38;1.20;;;;;;;;;;4855424;29;20056;-75
2022/10/18 12:35:48;;;;;;;3.67;0.63;;;;;;;;;;4905145;29;20844;-75
2022/10/18 12:38:43;;;;;;;5.65;1.30;;;;;;;;;;4916969;29;20151;-75
2022/10/18 12:41:27;;;;;;;3.97;0.93;;;;;;;;;;4912880;29;20065;-78
2022/10/18 12:44:16;;;;;;;4.43;0.85;;;;;;;;;;4912199;29;20045;-76
2022/10/18 12:46:47;;;;;;;8.18;0.80;;;;;;;;;;4973177;28;20149;-75
2022/10/18 12:49:21;;;;;;;5.07;1.00;;;;;;;;;;4974886;28;20057;-78
2022/10/18 12:51:57;;;;;;;4.20;1.00;;;;;;;;;;4970269;28;20058;-75
2022/10/18 12:54:29;;;;;;;3.88;0.75;;;;;;;;;;4972483;28;20059;-75
2022/10/18 12:56:58;;;;;;;2.58;0.68;;;;;;;;;;4973542;28;20055;-75
2022/10/18 12:59:37;;;;;;;1.40;0.70;;;;;;;;;;4975780;28;20043;-76
2022/10/18 13:02:09;;;;;;;2.63;0.98;;;;;;;;;;4978779;28;20067;-74
2022/10/18 13:04:39;;;;;;;5.07;0.90;;;;;;;;;;4978053;28;20059;-75
2022/10/18 13:07:43;;;;;;;1.15;0.80;;;;;;;;;;4980800;28;20225;-75
2022/10/18 13:10:16;;;;;;;2.35;0.70;;;;;;;;;;4975849;28;20061;-75
2022/10/18 13:12:43;;;;;;;;;;;;;;;;;;4968377;28;20483;-75
2022/10/18 13:15:29;;;;;;;4.38;0.68;;;;;;;;;;4970809;28;44681;-77
2022/10/18 13:18:06;;;;;;;5.28;1.05;;;;;;;;;;4971296;28;20062;-75
2022/10/18 13:20:41;;;;;;;3.42;0.80;;;;;;;;;;4976179;28;20044;-74
2022/10/18 13:23:47;;;;;;;5.03;0.90;;;;;;;;;;4978349;28;20059;-76
2022/10/18 13:26:31;;;;;;;1.70;0.70;;;;;;;;;;4979076;28;20051;-75
2022/10/18 13:29:13;;;;;;;4.35;1.30;;;;;;;;;;4981289;28;20051;-75
2022/10/18 13:31:43;;;;;;;2.50;0.98;;;;;;;;;;4987312;28;20043;-76
2022/10/18 13:34:23;;;;;;;4.00;0.90;;;;;;;;;;4977771;28;20057;-77
2022/10/18 13:37:20;;;;;;;3.53;1.10;;;;;;;;;;4978762;28;20055;-76
2022/10/18 13:39:48;;;;;;;5.20;1.00;;;;;;;;;;4999286;28;20082;-76
2022/10/18 13:42:32;;;;;;;1.33;0.70;;;;;;;;;;4978305;28;20056;-76
2022/10/18 13:45:19;;;;;;;6.07;0.95;;;;;;;;;;4977605;28;20087;-77
2022/10/18 13:47:47;;;;;;;7.38;0.80;;;;;;;;;;4976941;28;20055;-77
2022/10/18 13:54:06;;;;;;;4.20;0.98;;;;;;;;;;4980535;28;20055;-76
2022/10/18 13:56:56;;;;;;;5.10;1.17;;;;;;;;;;4978408;28;20059;-76
2022/10/18 14:00:02;;;;;;;3.75;1.27;;;;;;;;;;4981222;28;20055;-75
2022/10/18 14:08:31;;;;;;;2.20;0.80;;;;;;;;;;6183080;22;1930024;-76
2022/10/18 14:11:06;;;;;;;3.30;0.82;;;;;;;;;;6294579;22;20016;-75
2022/10/18 14:13:44;;;;;;;3.88;0.93;;;;;;;;;;6295868;22;20024;-76
2022/10/18 14:16:36;;;;;;;3.63;1.02;;;;;;;;;;6294715;22;20059;-77
2022/10/18 14:19:52;;;;;;;6.38;0.90;;;;;;;;;;6268494;22;20086;-78
2022/10/18 14:22:31;;;;;;;6.07;1.17;;;;;;;;;;6169933;23;20097;-74
2022/10/18 14:25:40;;;;;;;3.87;0.87;;;;;;;;;;6162932;23;20880;-77
2022/10/18 14:28:06;;;;;;;;;;;;;;;;;;6166421;23;20089;-75
2022/10/18 14:30:57;;;;;;;3.65;0.98;;;;;;;;;;6163157;23;44598;-75
2022/10/18 14:33:27;;;;;;;5.40;1.13;;;;;;;;;;6107744;23;20041;-75
2022/10/18 14:36:13;;;;;;;2.30;1.00;;;;;;;;;;6163631;23;20024;-77
2022/10/18 14:39:01;;;;;;;2.60;0.63;;;;;;;;;;6166082;23;20070;-76
2022/10/18 14:41:46;;;;;;;2.10;0.70;;;;;;;;;;6171195;23;20022;-75
2022/10/18 14:44:15;;;;;;;5.72;0.68;;;;;;;;;;6171294;23;20025;-76
2022/10/18 14:47:01;;;;;;;5.10;1.00;;;;;;;;;;6168216;23;20049;-78
2022/10/18 14:49:41;;;;;;;3.57;1.10;;;;;;;;;;6171665;23;20042;-74
2022/10/18 14:52:15;;;;;;;3.22;1.05;;;;;;;;;;6168639;23;21255;-77
2022/10/18 14:54:59;;;;;;;5.57;1.13;;;;;;;;;;6165403;23;20463;-74
2022/10/18 14:57:41;;;;;;;2.42;0.80;;;;;;;;;;6198654;22;20028;-77
2022/10/18 15:00:08;;;;;;;4.38;0.85;;;;;;;;;;6255815;22;20720;-76
2022/10/18 15:02:40;;;;;;;6.40;1.00;;;;;;;;;;6260612;22;20040;-75
2022/10/18 15:05:46;;;;;;;4.05;1.08;;;;;;;;;;6234758;22;20025;-74
2022/10/18 15:08:41;;;;;;;4.40;1.08;;;;;;;;;;6260415;22;20116;-79
2022/10/18 15:11:10;;;;;;;3.88;1.48;;;;;;;;;;6266829;22;20032;-75
2022/10/18 15:13:48;;;;;;;3.53;1.20;;;;;;;;;;6257334;22;20028;-77
2022/10/18 15:16:26;;;;;;;6.90;1.23;;;;;;;;;;6227622;22;20027;-77
2022/10/18 15:19:17;;;;;;;5.18;0.77;;;;;;;;;;6254290;22;20016;-78
2022/10/18 15:22:07;;;;;;;4.32;0.93;;;;;;;;;;6186976;22;20111;-77
2022/10/18 15:25:06;;;;;;;11.35;1.58;;;;;;;;;;6253914;22;20021;-74
2022/10/18 15:27:35;;;;;;;7.20;1.33;;;;;;;;;;6256724;22;20048;-75
2022/10/18 15:30:27;;;;;;;3.65;1.35;;;;;;;;;;6230788;22;20020;-77
2022/10/18 15:33:10;;;;;;;4.97;1.10;;;;;;;;;;6236037;22;20017;-77
2022/10/18 15:35:44;;;;;;;4.90;0.93;;;;;;;;;;6260419;22;20044;-79
2022/10/18 15:38:35;;;;;;;8.38;1.27;;;;;;;;;;6234241;22;20027;-79
2022/10/18 15:41:29;;;;;;;2.40;0.77;;;;;;;;;;6235818;22;20131;-76
2022/10/18 15:44:31;;;;;;;3.35;0.77;;;;;;;;;;6118528;23;20034;-77
2022/10/18 15:47:10;;;;;;;7.80;1.13;;;;;;;;;;6263632;22;20083;-77
2022/10/18 15:50:10;;;;;;;7.63;1.20;;;;;;;;;;6261681;22;20017;-77
2022/10/18 15:52:44;;;;;;;2.40;0.80;;;;;;;;;;6240154;22;20032;-77
2022/10/18 15:55:33;;;;;;;6.20;1.35;;;;;;;;;;6262847;22;20005;-78
2022/10/18 15:58:21;;;;;;;8.40;1.00;;;;;;;;;;6267339;22;20744;-76
2022/10/18 16:01:05;;;;;;;4.32;1.15;;;;;;;;;;6266375;22;20016;-76
2022/10/18 16:03:38;;;;;;;10.00;1.50;;;;;;;;;;6265354;22;20012;-76
2022/10/18 16:06:20;;;;;;;4.13;1.25;;;;;;;;;;6246111;22;20017;-76
2022/10/18 16:08:53;;;;;;;3.28;0.98;;;;;;;;;;6238890;22;20005;-76
2022/10/18 16:11:32;;;;;;;10.77;1.35;;;;;;;;;;6264005;22;20040;-75
2022/10/18 16:13:59;;;;;;;8.13;1.30;;;;;;;;;;6264231;22;20024;-77
2022/10/18 16:16:29;;;;;;;7.88;1.58;;;;;;;;;;6264721;22;20185;-77
2022/10/18 16:19:30;;;;;;;7.13;1.45;;;;;;;;;;6216096;22;20044;-84
2022/10/18 16:22:13;;;;;;;3.67;1.13;;;;;;;;;;6210708;23;20028;-82
2022/10/18 16:24:40;;;;;;;6.90;1.55;;;;;;;;;;6186266;23;20033;-85
2022/10/18 16:27:09;;;;;;;4.53;1.00;;;;;;;;;;6217984;23;20013;-85
2022/10/18 16:29:36;;;;;;;7.40;1.13;;;;;;;;;;6215354;23;20044;-86
2022/10/18 16:32:06;;;;;;;6.65;1.42;;;;;;;;;;6218799;23;20116;-86
2022/10/18 16:34:46;;;;;;;8.98;1.45;;;;;;;;;;6187830;23;20032;-85
2022/10/18 16:37:31;;;;;;;5.90;1.05;;;;;;;;;;6216386;23;20017;-85
2022/10/18 16:39:58;;;;;;;6.45;1.42;;;;;;;;;;6213962;23;20032;-85
2022/10/18 16:42:50;;;;;;;8.80;1.45;;;;;;;;;;6214682;23;20009;-85
2022/10/18 16:45:22;;;;;;;8.57;1.50;;;;;;;;;;6215901;23;20029;-85
2022/10/18 16:47:49;;;;;;;6.70;1.50;;;;;;;;;;6215738;23;20060;-86
2022/10/18 16:50:18;;;;;;;4.88;1.10;;;;;;;;;;6217712;23;20027;-85
2022/10/18 16:52:49;;;;;;;8.63;1.40;;;;;;;;;;6216957;23;20029;-86
2022/10/18 16:55:23;;;;;;;6.10;1.33;;;;;;;;;;6217338;23;20416;-85
2022/10/18 16:58:21;;;;;;;9.75;1.15;;;;;;;;;;6205536;23;20025;-85
2022/10/18 17:00:59;;;;;;;5.43;1.65;;;;;;;;;;6191138;23;20029;-85
2022/10/18 17:04:13;;;;;;;11.00;2.08;;;;;;;;;;6103721;23;20050;-85